Latest Coastal Weather Observations for Rhyll

IDV60701

Issued at 10:11 pm EDT Wednesday 7 December 2022 (issued every 10 minutes, with the page automatically refreshed every 10 minutes)

About coastal observations | Map of coastal stations | Coastal observations for VIC | Marine services | Other Formats
Station Details ID: 086373 Name: RHYLL Lat: -38.46 Lon: 145.31 Height: 13.4 m
Data from the previous 72 hours. | See also: Recent months at Rhyll
Date/Time
EDT
Wind Sea
Height
m
Swell Vis
km
Cloud Weather Temp
°C
Press
MSL
hPa
Rain since
9am
mm
Dir  Spd
kts
Gust
kts
Height
m
Period
s
Dir
07/10:00pm WSW 15 27 - - - - - - - 11.9 1007.7 3.4
07/09:30pm SW 17 35 - - - - - - - 10.7 1007.0 3.4
07/09:00pm SW 15 25 - - - - - - Recent precip. 12.2 1006.3 3.4
07/08:59pm SW 15 25 - - - - - - - 12.1 1006.2 3.4
07/08:30pm WSW 13 27 - - - - - - - 11.2 1006.0 3.2
07/08:00pm WSW 11 24 - - - - - - - 11.6 1005.7 2.2
07/07:30pm WSW 13 25 - - - - - - - 12.1 1005.0 1.8
07/07:21pm WSW 15 27 - - - - - - - 12.2 1004.9 1.6
07/07:00pm WSW 9 18 - - - - - - - 15.2 1004.4 0.0
07/06:30pm WSW 10 16 - - - - - - - 16.2 1004.0 0.0
07/06:00pm WSW 14 23 - - - - - - - 16.8 1003.7 0.0
07/05:30pm WSW 13 21 - - - - - - - 16.6 1003.9 0.0
07/05:00pm WSW 12 20 - - - - - - - 16.8 1004.1 0.0
07/04:30pm WSW 14 22 - - - - - - - 16.7 1004.2 0.0
07/04:00pm SW 11 19 - - - - - - - 16.1 1004.4 0.0
07/03:30pm WSW 9 17 - - - - - - - 16.7 1004.5 0.0
07/03:00pm SW 11 18 - - - - - - - 17.4 1004.5 0.0
07/02:30pm WSW 10 18 - - - - - - - 17.3 1004.5 0.0
07/02:00pm SW 8 14 - - - - - - - 17.2 1004.4 0.0
07/01:30pm SSW 8 14 - - - - - - - 15.9 1004.6 0.0
07/01:00pm SW 8 14 - - - - - - - 15.5 1004.6 0.0
07/12:30pm SSW 8 12 - - - - - - - 17.2 1004.5 0.0
07/12:00pm SW 8 14 - - - - - - - 16.1 1004.6 0.0
07/11:30am SSW 9 13 - - - - - - - 17.2 1004.5 0.0
07/11:00am SSW 8 13 - - - - - - - 17.7 1004.5 0.0
07/10:30am SSW 7 12 - - - - - - - 17.0 1004.3 0.0
07/10:00am SSW 7 11 - - - - - - - 17.2 1004.2 0.0
07/09:30am SW 4 7 - - - - - - - 16.9 1004.3 0.0
07/09:00am S 2 6 - - - - - - - 16.8 1004.4 0.0
07/08:30am ESE 1 2 - - - - - - - 17.1 1004.4 0.0
07/08:00am CALM 0 1 - - - - - - - 15.0 1004.0 0.0
07/07:30am NE 2 4 - - - - - - - 14.8 1003.9 0.0
07/07:00am NE 2 4 - - - - - - - 13.9 1004.0 0.0
07/06:30am CALM 0 1 - - - - - - - 12.7 1004.0 0.0
07/06:00am NE 2 3 - - - - - - - 12.8 1003.9 0.0
07/05:30am N 2 4 - - - - - - - 12.6 1003.8 0.0
07/05:00am N 3 4 - - - - - - - 12.6 1003.7 0.0
07/04:30am N 3 5 - - - - - - - 12.9 1003.8 0.0
07/04:00am NE 3 7 - - - - - - - 12.8 1004.1 0.0
07/03:30am NNW 1 2 - - - - - - - 12.4 1004.2 0.0
07/03:00am NW 2 3 - - - - - - - 12.5 1004.8 0.0
07/02:30am CALM 0 0 - - - - - - - 11.5 1004.8 0.0
07/02:00am CALM 0 0 - - - - - - - 11.3 1005.4 0.0
07/01:30am NE 1 3 - - - - - - - 12.3 1005.7 0.0
07/01:00am ENE 4 5 - - - - - - - 12.3 1006.0 0.0
07/12:30am ENE 5 6 - - - - - - - 12.4 1006.4 0.0
07/12:00am E 5 6 - - - - - - - 12.3 1006.8 0.0
 
Date/Time
EDT
Wind Sea
Height
m
Swell Vis
km
Cloud Weather Temp
°C
Press
MSL
hPa
Rain since
9am
mm
Dir  Spd
kts
Gust
kts
Height
m
Period
s
Dir
06/11:30pm E 5 7 - - - - - - - 12.7 1007.2 0.0
06/11:00pm SE 7 9 - - - - - - - 13.3 1007.5 0.0
06/10:30pm ESE 7 8 - - - - - - - 13.2 1007.9 0.0
06/10:00pm SE 8 10 - - - - - - - 13.2 1008.2 0.0
06/09:30pm SE 9 11 - - - - - - - 13.5 1008.1 0.0
06/09:00pm SE 8 11 - - - - - - - 13.7 1007.9 0.0
06/08:30pm SE 8 11 - - - - - - - 13.9 1008.0 0.0
06/08:00pm SSE 9 12 - - - - - - - 14.3 1008.1 0.0
06/07:30pm SSE 9 12 - - - - - - - 15.2 1008.0 0.0
06/07:00pm SSE 9 13 - - - - - - - 15.5 1008.2 0.0
06/06:30pm S 8 12 - - - - - - - 16.7 1008.2 0.0
06/06:00pm S 8 12 - - - - - - - 17.4 1008.3 0.0
06/05:30pm S 8 13 - - - - - - - 17.5 1008.7 0.0
06/05:00pm S 9 11 - - - - - - - 18.0 1008.8 0.0
06/04:30pm S 9 14 - - - - - - - 18.1 1008.9 0.0
06/04:00pm S 8 13 - - - - - - - 18.4 1009.2 0.0
06/03:30pm S 9 13 - - - - - - - 18.6 1009.4 0.0
06/03:00pm S 9 13 - - - - - - - 18.8 1009.7 0.0
06/02:30pm S 9 13 - - - - - - - 18.9 1009.9 0.0
06/02:00pm S 8 13 - - - - - - - 18.9 1010.4 0.0
06/01:30pm S 9 12 - - - - - - - 18.5 1010.7 0.0
06/01:00pm S 7 9 - - - - - - - 19.2 1011.1 0.0
06/12:30pm SSE 6 9 - - - - - - - 19.1 1011.2 0.0
06/12:00pm SE 7 10 - - - - - - - 18.9 1011.2 0.0
06/11:30am E 2 4 - - - - - - - 18.7 1011.3 0.0
06/11:00am ESE 2 3 - - - - - - - 18.4 1011.5 0.0
06/10:30am NE 2 4 - - - - - - - 18.3 1011.9 0.0
06/10:00am ENE 3 5 - - - - - - - 18.8 1012.1 0.0
06/09:30am ENE 4 6 - - - - - - - 18.2 1012.3 0.0
06/09:00am E 7 9 - - - - - - - 16.4 1012.5 4.2
06/08:30am E 5 7 - - - - - - - 14.6 1012.6 4.2
06/08:00am E 7 10 - - - - - - - 13.8 1012.4 4.2
06/07:30am E 10 13 - - - - - - - 13.0 1012.1 4.2
06/07:00am E 7 10 - - - - - - - 12.5 1012.1 4.2
06/06:30am E 9 11 - - - - - - - 12.4 1011.9 4.2
06/06:00am ESE 12 16 - - - - - - - 12.5 1011.8 3.4
06/05:30am ESE 12 15 - - - - - - - 12.7 1011.5 3.4
06/05:00am ESE 3 5 - - - - - - - 13.0 1011.5 3.4
06/04:30am E 3 4 - - - - - - - 13.2 1011.3 2.8
06/04:00am ESE 7 10 - - - - - - - 13.3 1011.3 2.8
06/03:30am SE 7 9 - - - - - - - 13.4 1011.3 2.6
06/03:00am ESE 7 10 - - - - - - - 13.3 1011.3 2.6
06/02:30am ESE 7 9 - - - - - - - 13.3 1011.4 2.6
06/02:00am SE 8 10 - - - - - - - 13.2 1011.5 2.6
06/01:30am ESE 9 11 - - - - - - - 13.2 1011.5 2.6
06/01:00am E 11 14 - - - - - - - 13.4 1011.8 2.6
06/12:30am ESE 16 19 - - - - - - - 13.5 1012.1 2.6
06/12:00am SSE 12 17 - - - - - - Rain 14.2 1012.0 2.0
 
Date/Time
EDT
Wind Sea
Height
m
Swell Vis
km
Cloud Weather Temp
°C
Press
MSL
hPa
Rain since
9am
mm
Dir  Spd
kts
Gust
kts
Height
m
Period
s
Dir
05/11:30pm SSW 9 15 - - - - - - - 14.0 1012.3 1.6
05/11:00pm SSW 10 16 - - - - - - - 14.3 1012.4 1.0
05/10:30pm SSW 11 17 - - - - - - - 14.4 1012.5 1.0
05/10:00pm SSW 11 16 - - - - - - - 14.5 1012.4 1.0
05/09:30pm SW 11 19 - - - - - - - 14.3 1012.1 0.8
05/09:00pm SW 12 19 - - - - - - - 14.0 1012.0 0.6
05/08:30pm SW 13 20 - - - - - - - 14.0 1011.7 0.6
05/08:00pm SW 12 23 - - - - - - - 14.1 1011.7 0.6
05/07:30pm SW 13 21 - - - - - - - 14.0 1011.4 0.6
05/07:00pm SW 13 20 - - - - - - - 13.7 1011.2 0.6
05/06:30pm SW 14 24 - - - - - - - 14.2 1010.8 0.2
05/06:00pm SW 14 24 - - - - - - - 14.4 1010.5 0.2
05/05:30pm SW 13 21 - - - - - - - 14.5 1010.3 0.2
05/05:00pm SW 14 25 - - - - - - - 14.7 1010.3 0.2
05/04:30pm WSW 13 20 - - - - - - - 14.9 1010.2 0.2
05/04:05pm SW 15 25 - - - - - - - 15.0 1010.2 0.2
05/04:00pm WSW 13 21 - - - - - - - 14.9 1010.2 0.2
05/03:30pm WSW 14 23 - - - - - - - 15.3 1010.2 0.2
05/03:01pm SW 15 26 - - - - - - - 15.5 1010.1 0.2
05/03:00pm SW 14 26 - - - - - - - 15.4 1010.1 0.2
05/02:47pm WSW 15 26 - - - - - - - 16.0 1010.1 0.2
05/02:30pm SW 14 23 - - - - - - - 15.8 1010.1 0.2
05/02:00pm WSW 15 25 - - - - - - - 15.9 1010.1 0.2
05/01:33pm WSW 15 27 - - - - - - - 15.4 1010.2 0.2
05/01:30pm SW 14 20 - - - - - - - 16.1 1010.2 0.2
05/01:00pm SW 13 21 - - - - - - - 14.8 1010.2 0.2
05/12:30pm SW 15 27 - - - - - - - 15.7 1009.9 0.2
05/12:28pm SW 15 25 - - - - - - - 15.9 1009.9 0.2
05/12:00pm SW 14 25 - - - - - - Recent precip. 15.7 1009.7 0.2
05/11:53am SW 15 25 - - - - - - - 15.8 1009.6 0.2
05/11:30am SW 11 22 - - - - - - - 16.0 1009.6 0.0
05/11:00am SW 12 21 - - - - - - - 15.8 1009.5 0.0
05/10:30am SW 13 19 - - - - - - - 15.8 1009.2 0.0
05/10:00am SW 13 21 - - - - - - - 14.8 1008.9 0.0
05/09:30am SW 11 19 - - - - - - - 15.3 1008.9 0.0
05/09:00am SW 11 22 - - - - - - - 14.8 1008.8 0.4
05/08:30am SW 8 14 - - - - - - - 15.0 1008.6 0.4
05/08:00am WSW 10 20 - - - - - - - 14.8 1008.0 0.4
05/07:30am SW 8 14 - - - - - - - 15.1 1007.8 0.2
05/07:00am W 8 13 - - - - - - - 15.9 1007.4 0.2
05/06:30am WSW 8 15 - - - - - - - 15.8 1007.2 0.2
05/06:00am W 6 11 - - - - - - - 16.0 1007.0 0.2
05/05:30am W 7 12 - - - - - - - 16.0 1006.7 0.2
05/05:00am W 6 15 - - - - - - - 15.9 1006.4 0.2
05/04:30am W 9 16 - - - - - - - 16.3 1006.0 0.0
05/04:00am WSW 6 11 - - - - - - - 16.4 1005.2 0.0
05/03:30am W 5 12 - - - - - - - 16.5 1005.8 0.0
05/03:00am WSW 5 11 - - - - - - - 16.4 1005.4 0.0
05/02:30am W 5 11 - - - - - - - 16.6 1006.1 0.0
05/02:00am WSW 5 11 - - - - - - - 16.7 1005.4 0.0
05/01:30am WSW 8 13 - - - - - - - 17.1 1005.2 0.0
05/01:00am WSW 9 13 - - - - - - - 17.8 1005.6 0.0
05/12:30am SW 13 21 - - - - - - - 18.5 1005.3 0.0
05/12:00am WSW 12 22 - - - - - - - 19.9 1004.6 0.0
 
Date/Time
EDT
Wind Sea
Height
m
Swell Vis
km
Cloud Weather Temp
°C
Press
MSL
hPa
Rain since
9am
mm
Dir  Spd
kts
Gust
kts
Height
m
Period
s
Dir
04/11:30pm WSW 9 17 - - - - - - - 22.8 1004.4 0.0
04/11:00pm WNW 5 8 - - - - - - - 23.0 1003.6 0.0
04/10:30pm NW 5 7 - - - - - - - 23.1 1003.6 0.0

Other formats

Comma delimited format used in spreadsheet applications
http://www.bom.gov.au/fwo/IDV60701/IDV60701.94892.axf

JavaScript Object Notation format (JSON) in row-major order
http://www.bom.gov.au/fwo/IDV60701/IDV60701.94892.json

Data quality

Most of these data are generated automatically and are frequently updated. Quality checks on data are not normally performed. It is possible for incorrect values to appear. Refer to information at About Latest Weather Observations and please check the disclaimer before using these data.